KBKW/BKW METAR and TAF weather

Enter ICAO airport designator
Station Type Date Time Source
KBKW METAR 2020/11/25 20:51 UTC NOAA

KBKW 252051Z AUTO 15009G16KT 10SM FEW050 BKN090 15/08 A3005 RMK AO2 SLP175 T01500078 55013 TSNO


Station Type Date Time Source
KBKW Decoded METAR 2020/11/25 20:51 UTC NOAA

RALEIGH COUNTY MEM AIRPORT , WV, United States (KBKW) 37-48N 081-07W 764M
Nov 25, 2020 - 03:51 PM EST / 2020.11.25 2051 UTC
Wind: from the SSE (150 degrees) at 10 MPH (9 KT) gusting to 18 MPH (16 KT):0
Visibility: 10 mile(s):0
Sky conditions: mostly cloudy
Temperature: 59.0 F (15.0 C)
Dew Point: 46.0 F (7.8 C)
Relative Humidity: 62%
Pressure (altimeter): 30.05 in. Hg (1017 hPa)
Pressure tendency: 0.04 inches (1.3 hPa) lower than three hours ago
ob: KBKW 252051Z AUTO 15009G16KT 10SM FEW050 BKN090 15/08 A3005 RMK AO2 SLP175 T01500078 55013 TSNO
cycle: 21

Station Type Date Time Source
KBKW TAF 2020/11/25 21:09 UTC NOAA

TAF
AMD KBKW 252106Z 2521/2618 16012G20KT P6SM BKN120
TEMPO 2522/2524 -SHRA
FM260000 16011G18KT P6SM VCTS BKN050CB
FM260500 18010G18KT 5SM -SHRA BR OVC030
FM260800 21008G19KT 6SM -SHRA BR OVC017
FM261000 23006KT P6SM OVC011
FM261600 26008G15KT P6SM BKN018
FM261700 26007KT P6SM BKN024

Example: see airport list